Time;durP1;ratioP1;P1;durP2;ratioP2;P2;SDS_P1;SDS_P2;PMS_P1;PMS_P2;Temp;Humidity;BMP_temperature;BMP_pressure;BME280_temperature;BME280_humidity;BME280_pressure;Samples;Min_cycle;Max_cycle;Signal;HPM_P1;HPM_P2
2023/10/12 00:02:26;;;;;;;26.45;23.35;;;18.30;99.90;;;;;;4939841;28;20122;-72
2023/10/12 00:05:00;;;;;;;25.80;23.00;;;18.30;99.90;;;;;;4924645;29;20043;-71
2023/10/12 00:07:34;;;;;;;25.42;23.02;;;18.40;99.90;;;;;;4913561;28;20078;-70
2023/10/12 00:12:44;;;;;;;26.13;22.90;;;18.30;99.90;;;;;;4913177;28;20047;-71
2023/10/12 00:15:28;;;;;;;26.15;23.40;;;18.30;99.90;;;;;;4925782;28;20043;-71
2023/10/12 00:18:08;;;;;;;25.92;22.90;;;18.30;99.90;;;;;;4926769;28;20157;-72
2023/10/12 00:20:35;;;;;;;25.05;22.75;;;18.30;99.90;;;;;;4936063;28;20046;-71
2023/10/12 00:23:09;;;;;;;26.23;23.52;;;18.30;99.90;;;;;;4921295;28;20054;-71
2023/10/12 00:25:46;;;;;;;24.55;22.17;;;18.30;99.90;;;;;;4921454;28;20047;-71
2023/10/12 00:28:16;;;;;;;29.40;24.02;;;18.30;99.90;;;;;;4923485;28;20055;-72
2023/10/12 00:30:49;;;;;;;28.83;23.45;;;18.30;99.90;;;;;;4935056;28;20140;-71
2023/10/12 00:33:17;;;;;;;26.90;23.80;;;18.30;99.90;;;;;;4938858;28;20050;-71
2023/10/12 00:35:49;;;;;;;26.52;23.27;;;18.30;99.90;;;;;;4919364;28;20052;-71
2023/10/12 00:38:17;;;;;;;27.20;23.20;;;18.30;99.90;;;;;;4921840;28;20047;-72
2023/10/12 00:41:04;;;;;;;26.85;24.27;;;18.30;99.90;;;;;;4916805;28;20066;-72
2023/10/12 00:43:36;;;;;;;25.40;22.77;;;18.30;99.90;;;;;;4934325;28;20093;-70
2023/10/12 00:46:32;;;;;;;25.02;22.38;;;18.30;99.90;;;;;;4922482;28;20051;-72
2023/10/12 00:49:19;;;;;;;23.77;21.55;;;18.30;99.90;;;;;;4921983;29;20050;-71
2023/10/12 00:52:08;;;;;;;25.80;23.08;;;18.40;99.90;;;;;;4904518;29;20367;-72
2023/10/12 00:57:10;;;;;;;25.33;22.65;;;18.40;99.90;;;;;;4915946;28;20048;-71
2023/10/12 00:59:39;;;;;;;25.55;23.08;;;18.40;99.90;;;;;;4936354;28;20403;-72
2023/10/12 01:02:08;;;;;;;24.60;22.00;;;18.30;99.90;;;;;;4935485;28;20047;-71
2023/10/12 01:04:37;;;;;;;28.73;23.35;;;18.40;99.90;;;;;;4914208;28;20514;-72
2023/10/12 01:07:06;;;;;;;29.55;23.45;;;18.30;99.90;;;;;;4934795;28;20043;-71
2023/10/12 01:09:39;;;;;;;25.05;22.45;;;18.40;99.90;;;;;;4935560;28;20058;-70
2023/10/12 01:12:13;;;;;;;34.17;24.33;;;18.30;99.90;;;;;;4934593;28;20502;-72
2023/10/12 01:14:54;;;;;;;25.83;22.65;;;18.30;99.90;;;;;;4934645;28;20051;-71
2023/10/12 01:17:25;;;;;;;25.30;22.90;;;18.40;99.90;;;;;;4936638;28;20067;-71
2023/10/12 01:19:52;;;;;;;26.60;23.17;;;18.40;99.90;;;;;;4932948;28;20162;-72
2023/10/12 01:22:31;;;;;;;32.97;23.02;;;18.40;99.90;;;;;;4935678;28;20039;-71
2023/10/12 01:25:03;;;;;;;25.48;22.92;;;18.40;99.90;;;;;;4934981;28;20051;-71
2023/10/12 01:27:29;;;;;;;25.17;22.73;;;18.40;99.90;;;;;;4923230;28;20051;-70
2023/10/12 01:30:13;;;;;;;27.90;22.92;;;18.30;99.90;;;;;;4914455;28;20035;-71
2023/10/12 01:32:40;;;;;;;24.67;22.33;;;18.30;99.90;;;;;;4930646;28;20118;-72
2023/10/12 01:35:11;;;;;;;26.08;23.42;;;18.30;99.90;;;;;;4936697;28;20052;-71
2023/10/12 01:37:55;;;;;;;28.35;23.60;;;18.20;99.90;;;;;;4913655;28;20584;-72
2023/10/12 01:40:24;;;;;;;25.07;22.80;;;18.20;99.90;;;;;;4918183;28;20054;-71
2023/10/12 01:42:51;;;;;;;26.50;23.90;;;18.20;99.90;;;;;;4915430;28;20401;-71
2023/10/12 01:47:55;;;;;;;26.27;23.95;;;18.20;99.90;;;;;;4912992;28;20083;-71
2023/10/12 01:50:27;;;;;;;28.23;24.02;;;18.20;99.90;;;;;;4936663;28;20054;-72
2023/10/12 01:52:58;;;;;;;24.77;22.50;;;18.20;99.90;;;;;;4915585;28;20899;-71
2023/10/12 01:55:32;;;;;;;25.90;23.42;;;18.20;99.90;;;;;;4933497;28;20134;-72
2023/10/12 01:57:59;;;;;;;26.33;23.60;;;18.20;99.90;;;;;;4918674;28;20058;-71
2023/10/12 02:00:39;;;;;;;26.38;23.73;;;18.20;99.90;;;;;;4916124;28;20182;-71
2023/10/12 02:03:17;;;;;;;27.17;24.67;;;18.10;99.90;;;;;;4919718;28;20143;-71
2023/10/12 02:05:49;;;;;;;28.05;25.10;;;17.90;99.90;;;;;;4929547;28;20051;-70
2023/10/12 02:08:17;;;;;;;27.50;24.52;;;17.70;99.90;;;;;;4935361;28;20047;-69
2023/10/12 02:10:55;;;;;;;26.63;24.13;;;17.50;99.90;;;;;;4911093;28;20083;-69
2023/10/12 02:13:23;;;;;;;26.90;24.15;;;17.40;99.90;;;;;;4913475;28;20051;-68
2023/10/12 02:15:50;;;;;;;26.95;24.40;;;17.20;99.90;;;;;;4924939;28;20142;-70
2023/10/12 02:18:19;;;;;;;26.77;24.25;;;17.10;99.90;;;;;;4937361;28;20081;-70
2023/10/12 02:23:38;;;;;;;25.73;23.10;;;16.80;99.90;;;;;;4929889;28;20055;-70
2023/10/12 02:26:28;;;;;;;29.45;24.52;;;16.70;99.90;;;;;;4932560;28;20039;-69
2023/10/12 02:29:03;;;;;;;26.30;23.75;;;16.70;99.90;;;;;;4910575;28;20178;-69
2023/10/12 02:31:29;;;;;;;24.70;22.27;;;16.70;99.90;;;;;;4917092;28;20161;-69
2023/10/12 02:34:00;;;;;;;24.52;21.90;;;16.60;99.90;;;;;;4913119;28;20059;-69
2023/10/12 02:36:28;;;;;;;25.58;22.58;;;16.60;99.90;;;;;;4914642;28;20107;-68
2023/10/12 02:38:59;;;;;;;27.63;22.17;;;16.50;99.90;;;;;;4929034;28;20130;-68
2023/10/12 02:41:26;;;;;;;27.35;22.55;;;16.50;99.90;;;;;;4925040;28;20054;-69
2023/10/12 02:44:11;;;;;;;25.80;23.30;;;16.50;99.90;;;;;;4934454;28;20043;-69
2023/10/12 02:46:58;;;;;;;26.50;22.50;;;16.50;99.90;;;;;;4919219;28;20053;-70
2023/10/12 02:49:26;;;;;;;23.92;21.95;;;16.40;99.90;;;;;;4913830;28;20672;-70
2023/10/12 02:51:53;;;;;;;25.23;22.85;;;16.40;99.90;;;;;;4930377;28;20549;-69
2023/10/12 02:54:26;;;;;;;25.27;22.27;;;16.40;99.90;;;;;;4933020;28;20047;-68
2023/10/12 02:56:56;;;;;;;25.17;22.55;;;16.40;99.90;;;;;;4930714;28;20525;-69
2023/10/12 02:59:25;;;;;;;24.52;22.15;;;16.40;99.90;;;;;;4936248;28;20319;-68
2023/10/12 03:02:18;;;;;;;25.90;21.80;;;16.40;99.90;;;;;;4929006;28;20043;-70
2023/10/12 03:04:39;;;;;;;27.88;20.98;;;16.30;99.90;;;;;;4930414;28;20071;-68
2023/10/12 03:07:13;;;;;;;26.80;20.92;;;16.20;99.90;;;;;;4916652;28;20039;-70
2023/10/12 03:09:43;;;;;;;30.27;21.65;;;16.10;99.90;;;;;;4916662;28;20048;-67
2023/10/12 03:12:10;;;;;;;26.98;21.27;;;15.90;99.90;;;;;;4913395;29;20507;-69
2023/10/12 03:14:40;;;;;;;27.48;21.35;;;15.80;99.90;;;;;;4921765;29;20047;-69
2023/10/12 03:17:09;;;;;;;25.85;19.52;;;15.80;99.90;;;;;;4932667;28;20126;-69
2023/10/12 03:19:37;;;;;;;26.25;20.02;;;15.70;99.90;;;;;;4906497;29;20081;-69
2023/10/12 03:22:18;;;;;;;27.58;20.90;;;15.60;99.90;;;;;;4927652;28;20043;-69
2023/10/12 03:24:45;;;;;;;28.60;21.33;;;15.60;99.90;;;;;;4912148;28;20637;-69
2023/10/12 03:27:13;;;;;;;27.85;21.30;;;15.60;99.90;;;;;;4922907;28;20055;-68
2023/10/12 03:29:43;;;;;;;24.10;18.88;;;15.50;99.90;;;;;;4915518;28;20126;-68
2023/10/12 03:32:11;;;;;;;25.75;20.98;;;15.50;99.90;;;;;;4931638;28;20051;-68
2023/10/12 03:34:53;;;;;;;26.38;20.60;;;15.50;99.90;;;;;;4937873;28;20053;-70
2023/10/12 03:37:44;;;;;;;32.58;20.05;;;15.40;99.90;;;;;;4932316;28;20055;-69
2023/10/12 03:42:55;;;;;;;30.50;21.15;;;15.30;99.90;;;;;;4927592;28;20535;-71
2023/10/12 03:45:33;;;;;;;28.13;20.95;;;15.40;99.90;;;;;;4914920;28;20074;-69
2023/10/12 03:50:59;;;;;;;31.63;21.60;;;15.40;99.90;;;;;;4935288;28;20043;-70
2023/10/12 03:53:26;;;;;;;36.67;22.35;;;15.30;99.90;;;;;;4896754;28;20051;-69
2023/10/12 03:55:58;;;;;;;32.22;22.80;;;15.20;99.90;;;;;;4926549;28;20115;-69
2023/10/12 03:58:25;;;;;;;39.38;22.52;;;15.20;99.90;;;;;;4932742;28;20089;-70
2023/10/12 04:03:41;;;;;;;36.72;24.73;;;15.10;99.90;;;;;;4936150;28;20142;-70
2023/10/12 04:06:15;;;;;;;38.55;25.23;;;15.10;99.90;;;;;;4932334;28;20121;-71
2023/10/12 04:08:51;;;;;;;;;;;15.00;99.90;;;;;;4938774;28;20047;-68
2023/10/12 04:11:21;;;;;;;41.55;24.88;;;15.00;99.90;;;;;;4931900;28;19936;-70
2023/10/12 04:13:55;;;;;;;44.72;25.15;;;15.00;99.90;;;;;;4932863;28;20759;-70
2023/10/12 04:21:18;;;;;;;43.42;28.80;;;14.80;99.90;;;;;;4929440;28;20043;-69
2023/10/12 04:28:59;;;;;;;53.58;31.05;;;14.80;99.90;;;;;;4928510;28;20697;-70
2023/10/12 04:31:49;;;;;;;49.28;29.98;;;14.80;99.90;;;;;;4930127;28;20114;-70
2023/10/12 04:34:23;;;;;;;49.50;29.83;;;14.70;99.90;;;;;;4918988;28;20059;-70
2023/10/12 04:36:58;;;;;;;50.93;31.83;;;14.70;99.90;;;;;;4915993;28;20079;-69
2023/10/12 04:39:25;;;;;;;;;;;14.70;99.90;;;;;;4899182;29;20056;-71
2023/10/12 04:42:12;;;;;;;52.63;28.33;;;14.70;99.90;;;;;;4924722;28;19931;-72
2023/10/12 04:44:52;;;;;;;57.20;29.60;;;14.60;99.90;;;;;;4935454;28;20121;-70
2023/10/12 04:47:23;;;;;;;54.80;31.73;;;14.60;99.90;;;;;;4918906;28;20043;-72
2023/10/12 04:52:17;;;;;;;58.78;34.25;;;14.60;99.90;;;;;;4930676;28;20039;-70
2023/10/12 04:57:34;;;;;;;52.40;31.85;;;14.60;99.90;;;;;;4931995;28;20743;-70
2023/10/12 05:07:54;;;;;;;50.17;27.55;;;14.60;99.90;;;;;;4927476;28;20173;-70
2023/10/12 05:10:38;;;;;;;46.58;29.17;;;14.50;99.90;;;;;;4935182;28;20047;-71
2023/10/12 05:13:05;;;;;;;54.35;29.10;;;14.50;99.90;;;;;;4929216;28;20058;-71
2023/10/12 05:15:46;;;;;;;50.05;29.52;;;14.50;99.90;;;;;;4931375;28;20052;-71
2023/10/12 05:18:17;;;;;;;49.75;27.80;;;14.50;99.90;;;;;;4931299;28;20035;-71
2023/10/12 05:20:44;;;;;;;43.10;28.05;;;14.50;99.90;;;;;;4914074;28;20413;-70
2023/10/12 05:23:12;;;;;;;45.78;28.63;;;14.50;99.90;;;;;;4930228;28;20043;-71
2023/10/12 05:26:07;;;;;;;49.58;28.33;;;14.50;99.90;;;;;;4933444;28;20122;-69
2023/10/12 05:28:38;;;;;;;51.17;27.77;;;14.50;99.90;;;;;;4915693;28;20048;-71
2023/10/12 05:36:10;;;;;;;53.40;28.77;;;14.50;99.90;;;;;;4927221;28;20055;-70
2023/10/12 05:38:51;;;;;;;50.70;29.30;;;14.50;99.90;;;;;;4933068;28;20062;-70
2023/10/12 05:41:34;;;;;;;46.80;29.00;;;14.50;99.90;;;;;;4927279;28;20299;-72
2023/10/12 05:44:08;;;;;;;49.83;28.45;;;14.40;99.90;;;;;;4931553;28;20073;-71
2023/10/12 05:46:36;;;;;;;44.67;26.02;;;14.40;99.90;;;;;;4916009;28;20047;-71
2023/10/12 05:49:14;;;;;;;41.65;26.95;;;14.40;99.90;;;;;;4919919;28;20040;-71
2023/10/12 05:51:44;;;;;;;41.67;25.52;;;14.40;99.90;;;;;;4932447;28;20039;-71
2023/10/12 05:54:19;;;;;;;44.50;26.30;;;14.40;99.90;;;;;;4915837;28;20138;-71
2023/10/12 05:56:49;;;;;;;41.30;24.83;;;14.30;99.90;;;;;;4934661;28;20051;-70
2023/10/12 05:59:16;;;;;;;42.67;22.45;;;14.30;99.90;;;;;;4928890;28;20560;-70
2023/10/12 06:01:46;;;;;;;37.15;22.80;;;14.40;99.90;;;;;;4918077;28;20058;-70
2023/10/12 06:04:15;;;;;;;30.05;20.23;;;14.30;99.90;;;;;;4929052;28;20047;-70
2023/10/12 06:06:43;;;;;;;33.13;21.05;;;14.30;99.90;;;;;;4930313;28;20039;-71
2023/10/12 06:09:12;;;;;;;43.53;23.48;;;14.40;99.90;;;;;;4927196;28;20126;-70
2023/10/12 06:11:41;;;;;;;32.20;20.13;;;14.30;99.90;;;;;;4928035;28;20055;-71
2023/10/12 06:14:09;;;;;;;33.17;19.08;;;14.30;99.90;;;;;;4929805;28;20051;-71
2023/10/12 06:16:44;;;;;;;28.63;18.88;;;14.30;99.90;;;;;;4935797;28;20157;-71
2023/10/12 06:19:28;;;;;;;37.97;18.40;;;14.20;99.90;;;;;;4935760;28;20066;-71
2023/10/12 06:22:13;;;;;;;35.80;17.63;;;14.20;99.90;;;;;;4934064;28;20039;-70
2023/10/12 06:24:43;;;;;;;27.27;17.30;;;14.20;99.90;;;;;;4936686;28;20106;-70
2023/10/12 06:29:46;;;;;;;31.73;16.25;;;14.10;99.90;;;;;;4935541;28;20413;-70
2023/10/12 06:32:19;;;;;;;27.42;15.98;;;14.10;99.90;;;;;;4917261;28;20043;-71
2023/10/12 06:45:48;;;;;;;29.48;16.25;;;14.20;99.90;;;;;;4936857;28;20142;-71
2023/10/12 06:48:23;;;;;;;33.70;17.63;;;14.10;99.90;;;;;;4937124;28;20050;-71
2023/10/12 06:51:02;;;;;;;;;;;14.20;99.90;;;;;;4922409;29;20047;-71
2023/10/12 06:53:34;;;;;;;31.30;17.02;;;14.20;99.90;;;;;;4921925;28;20317;-71
2023/10/12 06:58:45;;;;;;;28.67;18.45;;;14.10;99.90;;;;;;4938229;28;20047;-72
2023/10/12 07:01:18;;;;;;;35.65;19.05;;;14.10;99.90;;;;;;4937306;28;20799;-74
2023/10/12 07:03:48;;;;;;;33.25;18.52;;;14.10;99.90;;;;;;4941914;28;20142;-71
2023/10/12 07:06:16;;;;;;;26.77;17.60;;;14.10;99.90;;;;;;4925162;28;20963;-71
2023/10/12 07:08:46;;;;;;;30.70;19.30;;;14.20;99.90;;;;;;4918518;28;20051;-75
2023/10/12 07:11:14;;;;;;;34.83;19.80;;;14.10;99.90;;;;;;4917139;28;20056;-75
2023/10/12 07:13:41;;;;;;;32.80;18.85;;;14.10;99.90;;;;;;4937942;28;20035;-76
2023/10/12 07:16:08;;;;;;;29.80;18.20;;;14.10;99.90;;;;;;4919543;28;20055;-76
2023/10/12 07:18:36;;;;;;;25.50;17.58;;;14.20;99.90;;;;;;4942239;28;20054;-76
2023/10/12 07:21:06;;;;;;;27.30;17.73;;;14.10;99.90;;;;;;4942027;28;20617;-76
2023/10/12 07:23:36;;;;;;;26.60;17.05;;;14.20;99.90;;;;;;4929260;28;20043;-77
2023/10/12 07:26:12;;;;;;;29.50;18.02;;;14.10;99.90;;;;;;4943707;28;20048;-76
2023/10/12 07:28:42;;;;;;;26.10;16.88;;;14.10;99.90;;;;;;4928179;28;20047;-76
2023/10/12 07:39:18;;;;;;;28.25;17.08;;;14.20;99.90;;;;;;4928858;28;20043;-76
2023/10/12 07:42:12;;;;;;;29.13;17.42;;;14.20;99.90;;;;;;4919972;28;20047;-76
2023/10/12 07:44:42;;;;;;;27.08;15.63;;;14.20;99.90;;;;;;4938445;28;20055;-74
2023/10/12 07:47:19;;;;;;;27.25;16.55;;;14.20;99.90;;;;;;4916623;28;20047;-75
2023/10/12 07:49:50;;;;;;;22.33;14.73;;;14.30;99.90;;;;;;4933586;28;20600;-75
2023/10/12 07:57:15;;;;;;;24.52;14.55;;;14.30;99.90;;;;;;4916998;28;20051;-74
2023/10/12 07:59:54;;;;;;;18.35;12.35;;;14.30;99.90;;;;;;4936490;28;20079;-74
2023/10/12 08:10:56;;;;;;;20.83;13.35;;;14.30;99.90;;;;;;4918491;28;20134;-75
2023/10/12 08:21:24;;;;;;;23.40;14.05;;;14.40;99.90;;;;;;4934456;28;21936;-73
2023/10/12 08:23:57;;;;;;;28.17;15.30;;;14.40;99.90;;;;;;4907600;29;20072;-75
2023/10/12 08:26:35;;;;;;;24.67;14.25;;;14.50;99.90;;;;;;4921093;28;20051;-75
2023/10/12 08:29:17;;;;;;;18.08;13.05;;;14.50;99.90;;;;;;4934293;28;20055;-75
2023/10/12 08:31:45;;;;;;;23.38;13.85;;;14.50;99.90;;;;;;4903920;28;20059;-75
2023/10/12 08:37:18;;;;;;;26.85;15.98;;;14.50;99.90;;;;;;4917299;28;20046;-74
2023/10/12 08:39:50;;;;;;;22.17;14.18;;;14.60;99.90;;;;;;4931443;28;20050;-75
2023/10/12 08:45:07;;;;;;;22.42;14.40;;;14.70;99.90;;;;;;4919813;28;20131;-73
2023/10/12 08:50:08;;;;;;;21.05;14.18;;;14.70;99.90;;;;;;4921093;29;20102;-75
2023/10/12 08:52:38;;;;;;;23.02;14.10;;;14.70;99.90;;;;;;4938896;28;20146;-75
2023/10/12 08:55:12;;;;;;;23.58;13.32;;;14.70;99.90;;;;;;4937150;28;20039;-75
2023/10/12 08:58:11;;;;;;;20.03;13.23;;;14.70;99.90;;;;;;4937479;28;20442;-73
2023/10/12 09:00:44;;;;;;;27.40;15.15;;;14.70;99.90;;;;;;4933449;28;20674;-74
2023/10/12 09:05:51;;;;;;;27.05;14.65;;;14.80;99.90;;;;;;4917402;28;20585;-74
2023/10/12 09:10:49;;;;;;;26.55;15.52;;;14.80;99.90;;;;;;4936258;28;20116;-74
2023/10/12 09:13:17;;;;;;;25.70;15.23;;;14.90;99.90;;;;;;4936466;28;20717;-73
2023/10/12 09:15:54;;;;;;;24.15;15.40;;;14.90;99.90;;;;;;4935764;28;20525;-73
2023/10/12 09:18:24;;;;;;;23.33;14.40;;;14.80;99.90;;;;;;4931901;28;20051;-73
2023/10/12 09:23:46;;;;;;;25.25;13.80;;;14.80;99.90;;;;;;4938271;28;20088;-75
2023/10/12 09:36:44;;;;;;;27.60;13.57;;;15.00;99.90;;;;;;4933933;28;20134;-71
2023/10/12 09:39:15;;;;;;;27.55;14.07;;;14.90;99.90;;;;;;4934591;28;20051;-71
2023/10/12 09:41:55;;;;;;;21.38;13.10;;;14.90;99.90;;;;;;4933256;28;20140;-72
2023/10/12 09:44:26;;;;;;;25.30;14.88;;;14.90;99.90;;;;;;4930352;28;20767;-69
2023/10/12 09:46:57;;;;;;;21.58;14.13;;;15.00;99.90;;;;;;4932643;28;20141;-71
2023/10/12 09:49:27;;;;;;;25.98;14.80;;;15.00;99.90;;;;;;4932050;28;20146;-71
2023/10/12 09:51:59;;;;;;;22.58;15.02;;;15.00;99.90;;;;;;4918295;29;20071;-69
2023/10/12 09:54:48;;;;;;;29.25;16.70;;;15.00;99.90;;;;;;4911617;28;20039;-71
2023/10/12 09:57:26;;;;;;;23.65;15.32;;;15.00;99.90;;;;;;4930645;28;20070;-70
2023/10/12 09:59:59;;;;;;;29.25;16.40;;;14.90;99.90;;;;;;4919446;29;20040;-71
2023/10/12 10:02:32;;;;;;;27.40;15.43;;;14.90;99.90;;;;;;4930265;28;20051;-71
2023/10/12 10:05:27;;;;;;;32.72;17.75;;;14.90;99.90;;;;;;4918807;28;20053;-70
2023/10/12 10:08:02;;;;;;;21.77;15.52;;;15.00;99.90;;;;;;4911472;29;20150;-71
2023/10/12 10:10:34;;;;;;;24.92;16.80;;;15.00;99.90;;;;;;4933116;28;20059;-71
2023/10/12 10:13:20;;;;;;;34.15;17.77;;;15.00;99.90;;;;;;4924805;28;20054;-72
2023/10/12 10:15:59;;;;;;;26.58;17.42;;;15.10;99.90;;;;;;4912571;28;20048;-72
2023/10/12 10:18:29;;;;;;;28.00;18.55;;;15.00;99.90;;;;;;4932142;28;20070;-70
2023/10/12 10:21:05;;;;;;;29.35;18.40;;;15.10;99.90;;;;;;4927619;28;20676;-71
2023/10/12 10:23:37;;;;;;;31.48;19.00;;;15.10;99.90;;;;;;4935067;28;20242;-72
2023/10/12 10:26:23;;;;;;;22.15;17.55;;;15.10;99.90;;;;;;4915952;28;20098;-69
2023/10/12 10:29:29;;;;;;;30.10;18.13;;;15.00;99.90;;;;;;4907698;28;20047;-70
2023/10/12 10:31:51;;;;;;;28.73;18.05;;;15.00;99.90;;;;;;4930582;28;20501;-71
2023/10/12 10:34:23;;;;;;;32.35;19.80;;;15.00;99.90;;;;;;4917755;28;20069;-69
2023/10/12 10:36:54;;;;;;;32.15;19.08;;;15.00;99.90;;;;;;4931252;28;20046;-70
2023/10/12 10:41:55;;;;;;;36.75;20.08;;;15.00;99.90;;;;;;4912098;28;20060;-70
2023/10/12 10:44:23;;;;;;;28.23;18.60;;;15.00;99.90;;;;;;4931143;28;20047;-71
2023/10/12 10:46:57;;;;;;;30.33;22.00;;;15.10;99.90;;;;;;4933389;28;20047;-71
2023/10/12 10:49:30;;;;;;;34.08;21.88;;;15.10;99.90;;;;;;4933510;28;21631;-71
2023/10/12 10:54:39;;;;;;;32.10;20.02;;;15.10;99.90;;;;;;4930939;28;20080;-70
2023/10/12 10:57:15;;;;;;;39.30;20.23;;;15.20;99.90;;;;;;4933098;28;20043;-69
2023/10/12 10:59:44;;;;;;;38.13;22.58;;;15.20;99.90;;;;;;4933132;28;20040;-71
2023/10/12 11:02:14;;;;;;;27.27;20.48;;;15.30;99.90;;;;;;4933876;28;20050;-71
2023/10/12 11:04:44;;;;;;;31.13;19.45;;;15.30;99.90;;;;;;4937774;28;20061;-70
2023/10/12 11:07:17;;;;;;;31.63;20.60;;;15.30;99.90;;;;;;4919879;28;20054;-72
2023/10/12 11:12:25;;;;;;;26.48;18.45;;;15.30;99.90;;;;;;4915513;28;20047;-71
2023/10/12 11:17:41;;;;;;;36.33;20.58;;;15.30;99.90;;;;;;4935307;28;20071;-71
2023/10/12 11:20:35;;;;;;;29.80;20.88;;;15.30;99.90;;;;;;4916447;28;20449;-70
2023/10/12 11:23:07;;;;;;;30.27;20.13;;;15.40;99.90;;;;;;4921972;28;20054;-71
2023/10/12 11:25:47;;;;;;;31.70;20.20;;;15.50;99.90;;;;;;4916766;28;20232;-71
2023/10/12 11:28:22;;;;;;;23.70;19.38;;;15.40;99.90;;;;;;4917923;28;20043;-71
2023/10/12 11:30:51;;;;;;;;;;;15.40;99.90;;;;;;4934606;28;20132;-70
2023/10/12 11:33:29;;;;;;;33.70;18.30;;;15.50;99.90;;;;;;4933346;28;20627;-70
2023/10/12 11:36:04;;;;;;;38.33;17.92;;;15.40;99.90;;;;;;4937771;28;20035;-71
2023/10/12 11:38:35;;;;;;;31.77;17.20;;;15.50;99.90;;;;;;4921705;28;20047;-72
2023/10/12 11:41:13;;;;;;;29.13;17.30;;;15.50;99.90;;;;;;4931093;28;20633;-71
2023/10/12 11:43:52;;;;;;;29.88;16.08;;;15.50;99.90;;;;;;4933715;28;20150;-70
2023/10/12 11:46:23;;;;;;;30.00;15.90;;;15.50;99.90;;;;;;4934155;28;20595;-70
2023/10/12 11:49:04;;;;;;;22.30;14.75;;;15.50;99.90;;;;;;4932617;28;20058;-70
2023/10/12 11:51:31;;;;;;;23.30;14.38;;;15.40;99.90;;;;;;4932908;28;20146;-70
2023/10/12 11:53:59;;;;;;;27.17;15.02;;;15.50;99.90;;;;;;4937913;28;20057;-70
2023/10/12 11:56:26;;;;;;;27.70;17.17;;;15.50;99.90;;;;;;4917431;28;20139;-71
2023/10/12 11:58:57;;;;;;;33.90;15.15;;;15.50;99.90;;;;;;4917053;28;20055;-70
2023/10/12 12:01:33;;;;;;;23.15;14.70;;;15.40;99.90;;;;;;4918062;28;20098;-70
2023/10/12 12:04:03;;;;;;;25.48;15.52;;;15.40;99.90;;;;;;4920850;28;20514;-69
2023/10/12 12:06:32;;;;;;;28.50;17.33;;;15.30;99.90;;;;;;4914622;28;20522;-68
2023/10/12 12:09:07;;;;;;;33.78;18.70;;;15.40;99.90;;;;;;4920122;28;20043;-69
2023/10/12 12:11:37;;;;;;;24.27;16.90;;;15.40;99.90;;;;;;4917623;28;20061;-70
2023/10/12 12:14:06;;;;;;;31.95;17.88;;;15.30;99.90;;;;;;4937183;28;20047;-69
2023/10/12 12:16:34;;;;;;;24.60;16.92;;;15.40;99.90;;;;;;4933655;28;20039;-69
2023/10/12 12:19:01;;;;;;;31.25;18.38;;;15.30;99.90;;;;;;4915979;28;20077;-69
2023/10/12 12:21:29;;;;;;;32.00;18.90;;;15.30;99.90;;;;;;4914854;28;20044;-69
2023/10/12 12:24:01;;;;;;;27.95;18.80;;;15.30;99.90;;;;;;4921880;28;20043;-68
2023/10/12 12:26:33;;;;;;;34.22;20.90;;;15.30;99.90;;;;;;4918211;28;20047;-70
2023/10/12 12:29:09;;;;;;;28.95;19.90;;;15.30;99.90;;;;;;4934209;28;20103;-69
2023/10/12 12:31:36;;;;;;;28.27;17.20;;;15.30;99.90;;;;;;4919624;28;20043;-70
2023/10/12 12:34:07;;;;;;;26.27;17.75;;;15.30;99.90;;;;;;4933525;28;20091;-70
2023/10/12 12:37:08;;;;;;;33.42;20.70;;;15.30;99.90;;;;;;4934885;28;20085;-69
2023/10/12 12:39:36;;;;;;;30.08;17.60;;;15.30;99.90;;;;;;4900776;28;21063;-70
2023/10/12 12:42:11;;;;;;;31.05;17.30;;;15.30;99.90;;;;;;4919587;28;20136;-69
2023/10/12 12:44:42;;;;;;;30.10;17.38;;;15.40;99.90;;;;;;4920759;28;20202;-71
2023/10/12 12:47:09;;;;;;;29.00;18.27;;;15.30;99.90;;;;;;4938587;28;20039;-71
2023/10/12 12:49:37;;;;;;;27.45;19.35;;;15.30;99.90;;;;;;4939022;28;20051;-69
2023/10/12 12:52:04;;;;;;;27.50;16.90;;;15.30;99.90;;;;;;4938098;28;20079;-69
2023/10/12 12:54:31;;;;;;;32.92;18.35;;;15.30;99.90;;;;;;4920818;28;20070;-69
2023/10/12 12:56:58;;;;;;;32.25;17.48;;;15.30;99.90;;;;;;4934130;28;20035;-70
2023/10/12 12:59:27;;;;;;;24.38;17.38;;;15.40;99.90;;;;;;4916385;28;20047;-70
2023/10/12 13:01:55;;;;;;;29.17;18.67;;;15.30;99.90;;;;;;4919958;28;20040;-69
2023/10/12 13:04:23;;;;;;;32.30;19.02;;;15.40;99.90;;;;;;4935518;28;20057;-70
2023/10/12 13:06:51;;;;;;;31.25;17.92;;;15.40;99.90;;;;;;4915641;28;20071;-70
2023/10/12 13:09:36;;;;;;;33.85;18.50;;;15.40;99.90;;;;;;4929036;28;20071;-68
2023/10/12 13:12:31;;;;;;;35.10;18.55;;;15.40;99.90;;;;;;4915178;28;20699;-70
2023/10/12 13:15:01;;;;;;;32.80;19.45;;;15.40;99.90;;;;;;4936181;28;20070;-69
2023/10/12 13:17:31;;;;;;;28.08;17.90;;;15.40;99.90;;;;;;4930557;28;20043;-70
2023/10/12 13:20:01;;;;;;;35.17;19.48;;;15.40;99.90;;;;;;4914607;28;20111;-70
2023/10/12 13:22:28;;;;;;;31.75;20.20;;;15.40;99.90;;;;;;4918429;28;20047;-69
2023/10/12 13:24:58;;;;;;;39.38;22.92;;;15.50;99.90;;;;;;4916901;28;20061;-70
2023/10/12 13:27:32;;;;;;;40.83;23.65;;;15.50;99.90;;;;;;4931131;28;20145;-68
2023/10/12 13:30:09;;;;;;;39.08;22.17;;;15.50;99.90;;;;;;4932789;28;20549;-69
2023/10/12 13:32:36;;;;;;;40.28;22.23;;;15.50;99.90;;;;;;4898411;28;20031;-70
2023/10/12 13:37:51;;;;;;;37.15;22.45;;;15.50;99.90;;;;;;4914526;28;20556;-69
2023/10/12 13:40:21;;;;;;;36.75;22.42;;;15.50;99.90;;;;;;4913441;28;20110;-69
2023/10/12 13:42:51;;;;;;;35.15;21.52;;;15.50;99.90;;;;;;4931102;28;20138;-70
2023/10/12 13:45:19;;;;;;;33.53;20.75;;;15.50;99.90;;;;;;4919352;28;20057;-70
2023/10/12 13:47:47;;;;;;;35.80;22.60;;;15.60;99.90;;;;;;4930921;28;20755;-69
2023/10/12 13:50:14;;;;;;;38.03;23.55;;;15.60;99.90;;;;;;4934250;28;20608;-70
2023/10/12 13:52:42;;;;;;;39.45;25.02;;;15.70;99.90;;;;;;4935723;28;20644;-71
2023/10/12 13:55:14;;;;;;;40.40;25.45;;;15.80;99.90;;;;;;4919124;28;20521;-71
2023/10/12 13:57:55;;;;;;;33.72;25.08;;;15.70;99.90;;;;;;4922013;28;20579;-72
2023/10/12 14:00:26;;;;;;;37.00;24.67;;;15.70;99.90;;;;;;4933562;28;20047;-71
2023/10/12 14:02:56;;;;;;;39.60;24.40;;;15.70;99.90;;;;;;4934529;28;20051;-71
2023/10/12 14:05:30;;;;;;;36.45;24.00;;;15.70;99.90;;;;;;4935047;28;20098;-71
2023/10/12 14:07:58;;;;;;;38.58;27.48;;;15.90;99.90;;;;;;4932748;28;20074;-71
2023/10/12 14:10:26;;;;;;;41.08;28.30;;;15.80;99.90;;;;;;4914089;28;20054;-72
2023/10/12 14:12:54;;;;;;;35.33;25.00;;;15.90;99.90;;;;;;4919064;28;20276;-72
2023/10/12 14:15:27;;;;;;;32.70;23.17;;;15.80;99.90;;;;;;4935385;28;20643;-72
2023/10/12 14:17:58;;;;;;;29.73;22.67;;;15.80;99.90;;;;;;4935680;28;20240;-70
2023/10/12 14:20:29;;;;;;;34.47;27.13;;;15.70;99.90;;;;;;4932717;28;20054;-71
2023/10/12 14:22:57;;;;;;;24.08;19.30;;;15.70;99.90;;;;;;4915353;28;20145;-70
2023/10/12 14:25:28;;;;;;;28.73;20.45;;;15.70;99.90;;;;;;4935717;28;20055;-72
2023/10/12 14:27:57;;;;;;;36.35;21.30;;;15.70;99.90;;;;;;4933151;28;20074;-72
2023/10/12 14:30:30;;;;;;;29.85;21.58;;;15.70;99.90;;;;;;4931760;28;20131;-72
2023/10/12 14:33:02;;;;;;;25.55;19.35;;;15.70;99.90;;;;;;4933392;28;20040;-71
2023/10/12 14:35:39;;;;;;;35.47;22.00;;;15.70;99.90;;;;;;4932871;28;20043;-71
2023/10/12 14:38:07;;;;;;;29.08;21.85;;;15.70;99.90;;;;;;4940234;28;20043;-70
2023/10/12 14:40:40;;;;;;;28.65;20.35;;;15.70;99.90;;;;;;4934416;28;20042;-70
2023/10/12 14:43:11;;;;;;;32.88;20.67;;;15.80;99.90;;;;;;4937344;28;20549;-70
2023/10/12 14:45:45;;;;;;;31.38;21.50;;;15.80;99.90;;;;;;4918441;28;20834;-71
2023/10/12 14:48:12;;;;;;;30.20;21.77;;;15.90;99.90;;;;;;4939210;28;20047;-71
2023/10/12 14:50:49;;;;;;;30.02;21.33;;;15.90;99.90;;;;;;4936499;28;20118;-72
2023/10/12 14:53:20;;;;;;;31.23;24.60;;;16.00;99.90;;;;;;4939350;28;20051;-71
2023/10/12 14:55:48;;;;;;;38.22;23.85;;;16.00;99.90;;;;;;4922103;28;20047;-71
2023/10/12 14:58:17;;;;;;;30.70;21.13;;;16.00;99.90;;;;;;4923163;28;20046;-70
2023/10/12 15:00:44;;;;;;;32.28;22.92;;;16.00;99.90;;;;;;4938304;28;20048;-70
2023/10/12 15:03:15;;;;;;;30.15;20.08;;;16.00;99.90;;;;;;4940328;28;20051;-72
2023/10/12 15:05:43;;;;;;;25.90;19.35;;;15.90;99.90;;;;;;4937923;28;20051;-71
2023/10/12 15:08:11;;;;;;;28.38;21.33;;;15.90;99.90;;;;;;4940658;28;20058;-70
2023/10/12 15:10:43;;;;;;;32.92;21.77;;;15.90;99.90;;;;;;4939794;28;20047;-70